sensor_id;sensor_type;location;lat;lon;timestamp;pressure;altitude;pressure_sealevel;temperature;humidity
24746;BME280;12845;52.042;6.838;2023-02-28T00:00:26;-17989.31;;;-1.40;100.00
24746;BME280;12845;52.042;6.838;2023-02-28T00:02:51;-17990.44;;;-1.36;100.00
24746;BME280;12845;52.042;6.838;2023-02-28T00:05:19;-17992.78;;;-1.27;100.00
24746;BME280;12845;52.042;6.838;2023-02-28T00:07:45;-17994.03;;;-1.23;100.00
24746;BME280;12845;52.042;6.838;2023-02-28T00:10:13;-17995.16;;;-1.19;100.00
24746;BME280;12845;52.042;6.838;2023-02-28T00:12:39;-17995.72;;;-1.17;100.00
24746;BME280;12845;52.042;6.838;2023-02-28T00:15:07;-17995.72;;;-1.17;100.00
24746;BME280;12845;52.042;6.838;2023-02-28T00:17:32;-17995.56;;;-1.17;100.00
24746;BME280;12845;52.042;6.838;2023-02-28T00:19:58;-17998.47;;;-1.06;100.00
24746;BME280;12845;52.042;6.838;2023-02-28T00:22:41;-18000.97;;;-0.97;100.00
24746;BME280;12845;52.042;6.838;2023-02-28T00:25:07;-18001.53;;;-0.95;100.00
24746;BME280;12845;52.042;6.838;2023-02-28T00:27:34;-18001.53;;;-0.95;100.00
24746;BME280;12845;52.042;6.838;2023-02-28T00:30:00;-18002.09;;;-0.93;100.00
24746;BME280;12845;52.042;6.838;2023-02-28T00:32:26;-18001.94;;;-0.94;100.00
24746;BME280;12845;52.042;6.838;2023-02-28T00:34:51;-18001.38;;;-0.96;100.00
24746;BME280;12845;52.042;6.838;2023-02-28T00:37:16;-18002.63;;;-0.91;100.00
24746;BME280;12845;52.042;6.838;2023-02-28T00:39:42;-18002.63;;;-0.91;100.00
24746;BME280;12845;52.042;6.838;2023-02-28T00:42:08;-18003.47;;;-0.88;100.00
24746;BME280;12845;52.042;6.838;2023-02-28T00:44:33;-18003.75;;;-0.87;100.00
24746;BME280;12845;52.042;6.838;2023-02-28T00:47:00;-18006.66;;;-0.76;100.00
24746;BME280;12845;52.042;6.838;2023-02-28T00:49:26;-18007.06;;;-0.75;100.00
24746;BME280;12845;52.042;6.838;2023-02-28T00:51:53;-18009.56;;;-0.65;100.00
24746;BME280;12845;52.042;6.838;2023-02-28T00:54:19;-18008.59;;;-0.69;100.00
24746;BME280;12845;52.042;6.838;2023-02-28T00:56:45;-18010.13;;;-0.63;100.00
24746;BME280;12845;52.042;6.838;2023-02-28T00:59:12;-18011.38;;;-0.59;100.00
24746;BME280;12845;52.042;6.838;2023-02-28T01:01:38;-18011.50;;;-0.58;100.00
24746;BME280;12845;52.042;6.838;2023-02-28T01:04:03;-18011.38;;;-0.59;100.00
24746;BME280;12845;52.042;6.838;2023-02-28T01:06:29;-18011.78;;;-0.57;100.00
24746;BME280;12845;52.042;6.838;2023-02-28T01:08:58;-18013.44;;;-0.51;100.00
24746;BME280;12845;52.042;6.838;2023-02-28T01:11:23;-18015.94;;;-0.42;100.00
24746;BME280;12845;52.042;6.838;2023-02-28T01:13:49;-18016.22;;;-0.41;100.00
24746;BME280;12845;52.042;6.838;2023-02-28T01:16:15;-18016.38;;;-0.40;100.00
24746;BME280;12845;52.042;6.838;2023-02-28T01:18:40;-18017.59;;;-0.36;100.00
24746;BME280;12845;52.042;6.838;2023-02-28T01:21:08;-18018.72;;;-0.32;100.00
24746;BME280;12845;52.042;6.838;2023-02-28T01:23:34;-18018.44;;;-0.33;100.00
24746;BME280;12845;52.042;6.838;2023-02-28T01:26:12;-18018.72;;;-0.32;100.00
24746;BME280;12845;52.042;6.838;2023-02-28T01:28:37;-18019.81;;;-0.28;100.00
24746;BME280;12845;52.042;6.838;2023-02-28T01:31:03;-18019.41;;;-0.29;100.00
24746;BME280;12845;52.042;6.838;2023-02-28T01:33:28;-18019.81;;;-0.28;100.00
24746;BME280;12845;52.042;6.838;2023-02-28T01:36:01;-18020.09;;;-0.27;100.00
24746;BME280;12845;52.042;6.838;2023-02-28T01:38:27;-18020.66;;;-0.25;100.00
24746;BME280;12845;52.042;6.838;2023-02-28T01:40:53;-18021.06;;;-0.23;100.00
24746;BME280;12845;52.042;6.838;2023-02-28T01:43:23;-18021.06;;;-0.23;100.00
24746;BME280;12845;52.042;6.838;2023-02-28T01:45:49;-18021.63;;;-0.21;100.00
24746;BME280;12845;52.042;6.838;2023-02-28T01:48:15;-18021.50;;;-0.21;100.00
24746;BME280;12845;52.042;6.838;2023-02-28T01:50:43;-18021.50;;;-0.21;100.00
24746;BME280;12845;52.042;6.838;2023-02-28T01:53:13;-18021.63;;;-0.21;100.00
24746;BME280;12845;52.042;6.838;2023-02-28T01:55:42;-18018.44;;;-0.33;100.00
24746;BME280;12845;52.042;6.838;2023-02-28T01:58:10;-18020.53;;;-0.25;100.00
24746;BME280;12845;52.042;6.838;2023-02-28T02:00:35;-18018.84;;;-0.31;100.00
24746;BME280;12845;52.042;6.838;2023-02-28T02:03:07;-18019.56;;;-0.29;100.00
24746;BME280;12845;52.042;6.838;2023-02-28T02:05:36;-18021.50;;;-0.21;100.00
24746;BME280;12845;52.042;6.838;2023-02-28T02:08:05;-18022.88;;;-0.16;100.00
24746;BME280;12845;52.042;6.838;2023-02-28T02:10:41;-18024.25;;;-0.11;100.00
24746;BME280;12845;52.042;6.838;2023-02-28T02:24:03;-18025.09;;;-0.08;100.00
24746;BME280;12845;52.042;6.838;2023-02-28T02:35:20;-18025.38;;;-0.07;100.00
24746;BME280;12845;52.042;6.838;2023-02-28T02:37:54;-18024.94;;;-0.09;100.00
24746;BME280;12845;52.042;6.838;2023-02-28T02:40:27;-18024.69;;;-0.10;100.00
24746;BME280;12845;52.042;6.838;2023-02-28T02:42:59;-18026.19;;;-0.04;100.00
24746;BME280;12845;52.042;6.838;2023-02-28T02:45:28;-18025.94;;;-0.05;100.00
24746;BME280;12845;52.042;6.838;2023-02-28T02:48:01;-18023.97;;;-0.12;100.00
24746;BME280;12845;52.042;6.838;2023-02-28T02:50:39;-18024.41;;;-0.11;100.00
24746;BME280;12845;52.042;6.838;2023-02-28T02:53:08;-18025.22;;;-0.08;100.00
24746;BME280;12845;52.042;6.838;2023-02-28T02:55:38;-18025.94;;;-0.05;100.00
24746;BME280;12845;52.042;6.838;2023-02-28T02:58:08;-18025.94;;;-0.05;100.00
24746;BME280;12845;52.042;6.838;2023-02-28T03:00:42;-18026.47;;;-0.03;100.00
24746;BME280;12845;52.042;6.838;2023-02-28T03:03:09;-18026.34;;;-0.04;100.00
24746;BME280;12845;52.042;6.838;2023-02-28T03:05:42;-18026.47;;;-0.03;100.00
24746;BME280;12845;52.042;6.838;2023-02-28T03:08:10;-18026.75;;;-0.02;100.00
24746;BME280;12845;52.042;6.838;2023-02-28T03:13:33;-18027.88;;;0.02;100.00
24746;BME280;12845;52.042;6.838;2023-02-28T03:16:34;-18028.69;;;0.05;100.00
24746;BME280;12845;52.042;6.838;2023-02-28T03:27:23;-18026.19;;;-0.04;100.00
24746;BME280;12845;52.042;6.838;2023-02-28T03:30:03;-18026.47;;;-0.03;100.00
24746;BME280;12845;52.042;6.838;2023-02-28T03:32:34;-18029.13;;;0.07;100.00
24746;BME280;12845;52.042;6.838;2023-02-28T03:35:08;-18030.22;;;0.11;100.00
24746;BME280;12845;52.042;6.838;2023-02-28T03:37:40;-18031.19;;;0.14;100.00
24746;BME280;12845;52.042;6.838;2023-02-28T03:40:13;-18031.47;;;0.15;100.00
24746;BME280;12845;52.042;6.838;2023-02-28T03:42:42;-18031.88;;;0.17;100.00
24746;BME280;12845;52.042;6.838;2023-02-28T03:45:13;-18032.56;;;0.19;100.00
24746;BME280;12845;52.042;6.838;2023-02-28T03:47:54;-18033.13;;;0.21;100.00
24746;BME280;12845;52.042;6.838;2023-02-28T03:50:43;-18032.84;;;0.20;100.00
24746;BME280;12845;52.042;6.838;2023-02-28T03:53:23;-18031.75;;;0.16;100.00
24746;BME280;12845;52.042;6.838;2023-02-28T03:56:01;-18030.09;;;0.10;100.00
24746;BME280;12845;52.042;6.838;2023-02-28T03:58:51;-18029.38;;;0.08;100.00
24746;BME280;12845;52.042;6.838;2023-02-28T04:01:24;-18029.25;;;0.07;100.00
24746;BME280;12845;52.042;6.838;2023-02-28T04:03:52;-18028.16;;;0.03;100.00
24746;BME280;12845;52.042;6.838;2023-02-28T04:06:22;-18028.16;;;0.03;100.00
24746;BME280;12845;52.042;6.838;2023-02-28T04:08:48;-18028.56;;;0.05;100.00
24746;BME280;12845;52.042;6.838;2023-02-28T04:11:19;-18028.56;;;0.05;100.00
24746;BME280;12845;52.042;6.838;2023-02-28T04:13:45;-18028.69;;;0.05;100.00
24746;BME280;12845;52.042;6.838;2023-02-28T04:16:10;-18028.16;;;0.03;100.00
24746;BME280;12845;52.042;6.838;2023-02-28T04:18:40;-18027.88;;;0.02;100.00
24746;BME280;12845;52.042;6.838;2023-02-28T04:21:06;-18027.88;;;0.02;100.00
24746;BME280;12845;52.042;6.838;2023-02-28T04:23:32;-18027.59;;;0.01;100.00
24746;BME280;12845;52.042;6.838;2023-02-28T04:25:58;-18027.31;;;0.00;100.00
24746;BME280;12845;52.042;6.838;2023-02-28T04:28:23;-18026.06;;;-0.05;100.00
24746;BME280;12845;52.042;6.838;2023-02-28T04:31:00;-18025.09;;;-0.08;100.00
24746;BME280;12845;52.042;6.838;2023-02-28T04:33:26;-18024.53;;;-0.10;100.00
24746;BME280;12845;52.042;6.838;2023-02-28T04:36:03;-18026.19;;;-0.04;100.00
24746;BME280;12845;52.042;6.838;2023-02-28T04:38:32;-18026.34;;;-0.04;100.00
24746;BME280;12845;52.042;6.838;2023-02-28T04:40:58;-18025.66;;;-0.06;100.00
24746;BME280;12845;52.042;6.838;2023-02-28T04:43:26;-18026.63;;;-0.03;100.00
24746;BME280;12845;52.042;6.838;2023-02-28T04:45:51;-18026.06;;;-0.05;100.00
24746;BME280;12845;52.042;6.838;2023-02-28T04:48:16;-18027.31;;;0.00;100.00
24746;BME280;12845;52.042;6.838;2023-02-28T04:50:42;-18027.03;;;-0.01;100.00
24746;BME280;12845;52.042;6.838;2023-02-28T04:53:07;-18027.31;;;0.00;100.00
24746;BME280;12845;52.042;6.838;2023-02-28T04:55:33;-18025.50;;;-0.07;100.00
24746;BME280;12845;52.042;6.838;2023-02-28T04:57:58;-18025.94;;;-0.05;100.00
24746;BME280;12845;52.042;6.838;2023-02-28T05:00:23;-18026.34;;;-0.04;100.00
24746;BME280;12845;52.042;6.838;2023-02-28T05:02:50;-18026.47;;;-0.03;100.00
24746;BME280;12845;52.042;6.838;2023-02-28T05:05:15;-18026.47;;;-0.03;100.00
24746;BME280;12845;52.042;6.838;2023-02-28T05:07:44;-18026.63;;;-0.03;100.00
24746;BME280;12845;52.042;6.838;2023-02-28T05:10:10;-18026.75;;;-0.02;100.00
24746;BME280;12845;52.042;6.838;2023-02-28T05:12:36;-18026.75;;;-0.02;100.00
24746;BME280;12845;52.042;6.838;2023-02-28T05:15:01;-18026.63;;;-0.03;100.00
24746;BME280;12845;52.042;6.838;2023-02-28T05:17:27;-18025.09;;;-0.08;100.00
24746;BME280;12845;52.042;6.838;2023-02-28T05:19:53;-18024.69;;;-0.10;100.00
24746;BME280;12845;52.042;6.838;2023-02-28T05:22:18;-18024.94;;;-0.09;100.00
24746;BME280;12845;52.042;6.838;2023-02-28T05:24:43;-18023.97;;;-0.12;100.00
24746;BME280;12845;52.042;6.838;2023-02-28T05:27:10;-18022.88;;;-0.16;100.00
24746;BME280;12845;52.042;6.838;2023-02-28T05:29:35;-18020.94;;;-0.24;100.00
24746;BME280;12845;52.042;6.838;2023-02-28T05:32:10;-18020.25;;;-0.26;100.00
24746;BME280;12845;52.042;6.838;2023-02-28T05:34:36;-18018.72;;;-0.32;100.00
24746;BME280;12845;52.042;6.838;2023-02-28T05:37:01;-18015.66;;;-0.43;100.00
24746;BME280;12845;52.042;6.838;2023-02-28T05:39:26;-18015.13;;;-0.45;100.00
24746;BME280;12845;52.042;6.838;2023-02-28T05:41:52;-18015.13;;;-0.45;100.00
24746;BME280;12845;52.042;6.838;2023-02-28T05:44:17;-18014.16;;;-0.49;100.00
24746;BME280;12845;52.042;6.838;2023-02-28T05:46:42;-18014.41;;;-0.48;100.00
24746;BME280;12845;52.042;6.838;2023-02-28T05:49:08;-18013.88;;;-0.50;100.00
24746;BME280;12845;52.042;6.838;2023-02-28T05:51:33;-18013.31;;;-0.52;100.00
24746;BME280;12845;52.042;6.838;2023-02-28T05:54:01;-18011.50;;;-0.58;100.00
24746;BME280;12845;52.042;6.838;2023-02-28T05:56:27;-18007.63;;;-0.73;100.00
24746;BME280;12845;52.042;6.838;2023-02-28T05:58:53;-18009.44;;;-0.66;100.00
24746;BME280;12845;52.042;6.838;2023-02-28T06:03:45;-18009.72;;;-0.65;100.00
24746;BME280;12845;52.042;6.838;2023-02-28T06:06:11;-18007.34;;;-0.74;100.00
24746;BME280;12845;52.042;6.838;2023-02-28T06:08:36;-18006.25;;;-0.78;100.00
24746;BME280;12845;52.042;6.838;2023-02-28T06:11:05;-18006.09;;;-0.78;100.00
24746;BME280;12845;52.042;6.838;2023-02-28T06:13:31;-18004.84;;;-0.83;100.00
24746;BME280;12845;52.042;6.838;2023-02-28T06:16:00;-18005.13;;;-0.82;100.00
24746;BME280;12845;52.042;6.838;2023-02-28T06:18:26;-18004.16;;;-0.85;100.00
24746;BME280;12845;52.042;6.838;2023-02-28T06:20:54;-18003.47;;;-0.88;100.00
24746;BME280;12845;52.042;6.838;2023-02-28T06:23:23;-18002.09;;;-0.93;100.00
24746;BME280;12845;52.042;6.838;2023-02-28T06:25:48;-18001.13;;;-0.97;100.00
24746;BME280;12845;52.042;6.838;2023-02-28T06:28:14;-18000.69;;;-0.98;100.00
24746;BME280;12845;52.042;6.838;2023-02-28T06:30:40;-18000.84;;;-0.98;100.00
24746;BME280;12845;52.042;6.838;2023-02-28T06:33:05;-18000.00;;;-1.01;100.00
24746;BME280;12845;52.042;6.838;2023-02-28T06:35:30;-17999.31;;;-1.03;100.00
24746;BME280;12845;52.042;6.838;2023-02-28T06:37:56;-17999.03;;;-1.04;100.00
24746;BME280;12845;52.042;6.838;2023-02-28T06:40:22;-17996.13;;;-1.15;100.00
24746;BME280;12845;52.042;6.838;2023-02-28T06:42:47;-17995.56;;;-1.17;100.00
24746;BME280;12845;52.042;6.838;2023-02-28T06:45:12;-17994.59;;;-1.21;100.00
24746;BME280;12845;52.042;6.838;2023-02-28T06:47:39;-17994.03;;;-1.23;100.00
24746;BME280;12845;52.042;6.838;2023-02-28T06:50:06;-17994.03;;;-1.23;100.00
24746;BME280;12845;52.042;6.838;2023-02-28T06:52:32;-17992.25;;;-1.29;100.00
24746;BME280;12845;52.042;6.838;2023-02-28T06:54:58;-17992.09;;;-1.30;100.00
24746;BME280;12845;52.042;6.838;2023-02-28T06:57:30;-17990.31;;;-1.37;100.00
24746;BME280;12845;52.042;6.838;2023-02-28T06:59:58;-17990.31;;;-1.37;100.00
24746;BME280;12845;52.042;6.838;2023-02-28T07:02:23;-17989.88;;;-1.38;100.00
24746;BME280;12845;52.042;6.838;2023-02-28T07:04:49;-17990.72;;;-1.35;100.00
24746;BME280;12845;52.042;6.838;2023-02-28T07:07:14;-17991.00;;;-1.34;100.00
24746;BME280;12845;52.042;6.838;2023-02-28T07:09:39;-17991.00;;;-1.34;100.00
24746;BME280;12845;52.042;6.838;2023-02-28T07:12:05;-17992.38;;;-1.29;100.00
24746;BME280;12845;52.042;6.838;2023-02-28T07:14:30;-17992.38;;;-1.29;100.00
24746;BME280;12845;52.042;6.838;2023-02-28T07:16:55;-17991.81;;;-1.31;100.00
24746;BME280;12845;52.042;6.838;2023-02-28T07:19:21;-17992.53;;;-1.28;100.00
24746;BME280;12845;52.042;6.838;2023-02-28T07:21:46;-17992.66;;;-1.28;100.00
24746;BME280;12845;52.042;6.838;2023-02-28T07:24:11;-17993.34;;;-1.25;100.00
24746;BME280;12845;52.042;6.838;2023-02-28T07:26:37;-17993.50;;;-1.25;100.00
24746;BME280;12845;52.042;6.838;2023-02-28T07:29:02;-17993.22;;;-1.26;100.00
24746;BME280;12845;52.042;6.838;2023-02-28T07:31:27;-17997.66;;;-1.09;100.00
24746;BME280;12845;52.042;6.838;2023-02-28T07:33:53;-18003.47;;;-0.88;100.00
24746;BME280;12845;52.042;6.838;2023-02-28T07:36:19;-18007.06;;;-0.75;100.00
24746;BME280;12845;52.042;6.838;2023-02-28T07:38:46;-18010.13;;;-0.63;100.00
24746;BME280;12845;52.042;6.838;2023-02-28T07:41:20;-18010.97;;;-0.60;100.00
24746;BME280;12845;52.042;6.838;2023-02-28T07:43:46;-18011.50;;;-0.58;100.00
24746;BME280;12845;52.042;6.838;2023-02-28T07:46:13;-18012.34;;;-0.55;100.00
24746;BME280;12845;52.042;6.838;2023-02-28T07:48:43;-18014.84;;;-0.46;100.00
24746;BME280;12845;52.042;6.838;2023-02-28T07:51:08;-18015.94;;;-0.42;100.00
24746;BME280;12845;52.042;6.838;2023-02-28T07:53:34;-18017.34;;;-0.37;100.00
24746;BME280;12845;52.042;6.838;2023-02-28T07:56:01;-18017.88;;;-0.35;100.00
24746;BME280;12845;52.042;6.838;2023-02-28T07:58:28;-18020.66;;;-0.25;100.00
24746;BME280;12845;52.042;6.838;2023-02-28T08:00:53;-18023.72;;;-0.13;100.00
24746;BME280;12845;52.042;6.838;2023-02-28T08:03:21;-18023.28;;;-0.15;100.00
24746;BME280;12845;52.042;6.838;2023-02-28T08:05:46;-18025.94;;;-0.05;100.00
24746;BME280;12845;52.042;6.838;2023-02-28T08:08:13;-18027.16;;;-0.01;100.00
24746;BME280;12845;52.042;6.838;2023-02-28T08:10:39;-18028.69;;;0.05;100.00
24746;BME280;12845;52.042;6.838;2023-02-28T08:13:05;-18031.75;;;0.16;100.00
24746;BME280;12845;52.042;6.838;2023-02-28T08:15:30;-18033.97;;;0.25;100.00
24746;BME280;12845;52.042;6.838;2023-02-28T08:17:56;-18035.75;;;0.31;100.00
24746;BME280;12845;52.042;6.838;2023-02-28T08:20:22;-18040.63;;;0.49;100.00
24746;BME280;12845;52.042;6.838;2023-02-28T08:22:48;-18044.50;;;0.63;100.00
24746;BME280;12845;52.042;6.838;2023-02-28T08:25:13;-18047.81;;;0.76;100.00
24746;BME280;12845;52.042;6.838;2023-02-28T08:27:38;-18051.69;;;0.90;100.00
24746;BME280;12845;52.042;6.838;2023-02-28T08:30:04;-18054.75;;;1.01;100.00
24746;BME280;12845;52.042;6.838;2023-02-28T08:32:32;-18056.94;;;1.09;100.00
24746;BME280;12845;52.042;6.838;2023-02-28T08:34:57;-18059.44;;;1.19;100.00
24746;BME280;12845;52.042;6.838;2023-02-28T08:37:23;-18061.38;;;1.26;100.00
24746;BME280;12845;52.042;6.838;2023-02-28T08:39:48;-18062.06;;;1.28;100.00
24746;BME280;12845;52.042;6.838;2023-02-28T08:42:17;-18063.59;;;1.34;100.00
24746;BME280;12845;52.042;6.838;2023-02-28T08:44:42;-18064.84;;;1.39;100.00
24746;BME280;12845;52.042;6.838;2023-02-28T08:47:07;-18066.78;;;1.46;100.00
24746;BME280;12845;52.042;6.838;2023-02-28T08:49:33;-18067.75;;;1.49;100.00
24746;BME280;12845;52.042;6.838;2023-02-28T08:51:58;-18070.66;;;1.60;100.00
24746;BME280;12845;52.042;6.838;2023-02-28T08:54:24;-18075.63;;;1.78;100.00
24746;BME280;12845;52.042;6.838;2023-02-28T08:56:49;-18076.88;;;1.83;100.00
24746;BME280;12845;52.042;6.838;2023-02-28T08:59:15;-18078.00;;;1.87;100.00
24746;BME280;12845;52.042;6.838;2023-02-28T09:01:41;-18078.97;;;1.91;100.00
24746;BME280;12845;52.042;6.838;2023-02-28T09:04:08;-18079.38;;;1.92;100.00
24746;BME280;12845;52.042;6.838;2023-02-28T09:06:35;-18082.84;;;2.05;100.00
24746;BME280;12845;52.042;6.838;2023-02-28T09:09:01;-18086.00;;;2.17;100.00
24746;BME280;12845;52.042;6.838;2023-02-28T09:11:28;-18087.25;;;2.21;100.00
24746;BME280;12845;52.042;6.838;2023-02-28T09:13:53;-18091.28;;;2.36;100.00
24746;BME280;12845;52.042;6.838;2023-02-28T09:16:21;-18094.72;;;2.49;100.00
24746;BME280;12845;52.042;6.838;2023-02-28T09:18:46;-18099.00;;;2.65;100.00
24746;BME280;12845;52.042;6.838;2023-02-28T09:21:14;-18100.13;;;2.69;100.00
24746;BME280;12845;52.042;6.838;2023-02-28T09:23:41;-18097.91;;;2.61;100.00
24746;BME280;12845;52.042;6.838;2023-02-28T09:26:07;-18100.69;;;2.71;100.00
24746;BME280;12845;52.042;6.838;2023-02-28T09:28:33;-18105.94;;;2.90;100.00
24746;BME280;12845;52.042;6.838;2023-02-28T09:30:58;-18111.31;;;3.10;100.00
24746;BME280;12845;52.042;6.838;2023-02-28T09:33:24;-18112.56;;;3.15;100.00
24746;BME280;12845;52.042;6.838;2023-02-28T09:35:52;-18115.19;;;3.25;100.00
24746;BME280;12845;52.042;6.838;2023-02-28T09:38:22;-18118.38;;;3.36;100.00
24746;BME280;12845;52.042;6.838;2023-02-28T09:40:53;-18120.44;;;3.44;100.00
24746;BME280;12845;52.042;6.838;2023-02-28T09:43:22;-18124.72;;;3.60;100.00
24746;BME280;12845;52.042;6.838;2023-02-28T09:46:00;-18128.59;;;3.74;100.00
24746;BME280;12845;52.042;6.838;2023-02-28T09:48:38;-18129.56;;;3.78;86.00
24746;BME280;12845;52.042;6.838;2023-02-28T09:51:15;-18128.59;;;3.74;90.10
24746;BME280;12845;52.042;6.838;2023-02-28T09:53:46;-18130.25;;;3.80;94.32
24746;BME280;12845;52.042;6.838;2023-02-28T09:56:20;-18133.00;;;3.91;84.04
24746;BME280;12845;52.042;6.838;2023-02-28T09:59:01;-18134.41;;;3.96;91.23
24746;BME280;12845;52.042;6.838;2023-02-28T10:04:52;-18136.06;;;4.02;85.67
24746;BME280;12845;52.042;6.838;2023-02-28T10:10:03;-18136.88;;;4.05;67.77
24746;BME280;12845;52.042;6.838;2023-02-28T10:12:31;-18137.44;;;4.07;72.66
24746;BME280;12845;52.042;6.838;2023-02-28T10:14:58;-18138.97;;;4.13;72.54
24746;BME280;12845;52.042;6.838;2023-02-28T10:17:38;-18140.34;;;4.18;75.28
24746;BME280;12845;52.042;6.838;2023-02-28T10:20:07;-18144.06;;;4.32;90.54
24746;BME280;12845;52.042;6.838;2023-02-28T10:22:49;-18147.09;;;4.43;73.05
24746;BME280;12845;52.042;6.838;2023-02-28T10:25:22;-18148.22;;;4.47;77.06
24746;BME280;12845;52.042;6.838;2023-02-28T10:27:49;-18148.75;;;4.49;75.99
24746;BME280;12845;52.042;6.838;2023-02-28T10:30:15;-18147.66;;;4.45;73.44
24746;BME280;12845;52.042;6.838;2023-02-28T10:32:48;-18148.75;;;4.49;77.22
24746;BME280;12845;52.042;6.838;2023-02-28T10:35:24;-18151.53;;;4.59;77.54
24746;BME280;12845;52.042;6.838;2023-02-28T10:37:55;-18149.88;;;4.53;73.28
24746;BME280;12845;52.042;6.838;2023-02-28T10:45:22;-18155.13;;;4.72;78.33
24746;BME280;12845;52.042;6.838;2023-02-28T10:47:52;-18152.34;;;4.62;63.03
24746;BME280;12845;52.042;6.838;2023-02-28T10:50:42;-18153.88;;;4.68;65.67
24746;BME280;12845;52.042;6.838;2023-02-28T11:04:00;-18161.75;;;4.97;73.23
24746;BME280;12845;52.042;6.838;2023-02-28T11:06:32;-18164.63;;;5.08;67.54
24746;BME280;12845;52.042;6.838;2023-02-28T11:09:04;-18165.47;;;5.11;67.59
24746;BME280;12845;52.042;6.838;2023-02-28T11:11:43;-18166.72;;;5.15;73.32
24746;BME280;12845;52.042;6.838;2023-02-28T11:16:45;-18165.75;;;5.12;60.67
24746;BME280;12845;52.042;6.838;2023-02-28T11:19:22;-18165.59;;;5.11;63.04
24746;BME280;12845;52.042;6.838;2023-02-28T11:21:58;-18167.69;;;5.19;71.42
24746;BME280;12845;52.042;6.838;2023-02-28T11:24:33;-18168.63;;;5.23;65.76
24746;BME280;12845;52.042;6.838;2023-02-28T11:26:59;-18171.41;;;5.33;69.09
24746;BME280;12845;52.042;6.838;2023-02-28T11:29:46;-18171.94;;;5.35;65.55
24746;BME280;12845;52.042;6.838;2023-02-28T11:32:18;-18174.56;;;5.45;62.73
24746;BME280;12845;52.042;6.838;2023-02-28T11:34:45;-18173.63;;;5.41;63.60
24746;BME280;12845;52.042;6.838;2023-02-28T11:37:18;-18174.16;;;5.43;64.54
24746;BME280;12845;52.042;6.838;2023-02-28T11:39:45;-18177.63;;;5.56;66.84
24746;BME280;12845;52.042;6.838;2023-02-28T11:45:07;-18176.22;;;5.51;61.37
24746;BME280;12845;52.042;6.838;2023-02-28T11:53:19;-18179.81;;;5.64;63.19
24746;BME280;12845;52.042;6.838;2023-02-28T12:04:31;-18185.47;;;5.85;62.18
24746;BME280;12845;52.042;6.838;2023-02-28T12:16:05;-18196.38;;;6.25;75.40
24746;BME280;12845;52.042;6.838;2023-02-28T12:27:29;-18202.31;;;6.47;62.96
24746;BME280;12845;52.042;6.838;2023-02-28T12:30:14;-18204.78;;;6.57;59.64
24746;BME280;12845;52.042;6.838;2023-02-28T12:32:44;-18206.56;;;6.63;68.79
24746;BME280;12845;52.042;6.838;2023-02-28T12:35:14;-18209.59;;;6.74;58.46
24746;BME280;12845;52.042;6.838;2023-02-28T12:37:48;-18211.94;;;6.83;58.20
24746;BME280;12845;52.042;6.838;2023-02-28T12:40:21;-18211.00;;;6.80;64.13
24746;BME280;12845;52.042;6.838;2023-02-28T12:42:52;-18213.34;;;6.88;72.16
24746;BME280;12845;52.042;6.838;2023-02-28T12:45:23;-18215.69;;;6.97;77.51
24746;BME280;12845;52.042;6.838;2023-02-28T12:47:59;-18217.19;;;7.03;58.89
24746;BME280;12845;52.042;6.838;2023-02-28T12:50:26;-18220.09;;;7.13;63.20
24746;BME280;12845;52.042;6.838;2023-02-28T12:52:55;-18219.81;;;7.12;62.63
24746;BME280;12845;52.042;6.838;2023-02-28T12:55:39;-18222.28;;;7.21;64.45
24746;BME280;12845;52.042;6.838;2023-02-28T13:04:04;-18224.91;;;7.31;66.19
24746;BME280;12845;52.042;6.838;2023-02-28T13:06:55;-18228.06;;;7.43;78.61
24746;BME280;12845;52.042;6.838;2023-02-28T13:09:24;-18228.75;;;7.45;72.82
24746;BME280;12845;52.042;6.838;2023-02-28T13:11:52;-18233.72;;;7.64;58.98
24746;BME280;12845;52.042;6.838;2023-02-28T13:19:28;-18238.13;;;7.80;73.69
24746;BME280;12845;52.042;6.838;2023-02-28T13:21:56;-18241.44;;;7.93;67.86
24746;BME280;12845;52.042;6.838;2023-02-28T13:24:51;-18242.00;;;7.95;63.26
24746;BME280;12845;52.042;6.838;2023-02-28T13:29:49;-18241.72;;;7.94;62.98
24746;BME280;12845;52.042;6.838;2023-02-28T13:47:42;-18245.97;;;8.09;72.49
24746;BME280;12845;52.042;6.838;2023-02-28T13:50:37;-18249.97;;;8.24;73.94
24746;BME280;12845;52.042;6.838;2023-02-28T13:53:32;-18253.00;;;8.35;66.61
24746;BME280;12845;52.042;6.838;2023-02-28T13:56:36;-18254.09;;;8.40;79.42
24746;BME280;12845;52.042;6.838;2023-02-28T14:00:18;-18255.34;;;8.44;60.87
24746;BME280;12845;52.042;6.838;2023-02-28T14:02:37;-18254.09;;;8.40;71.57
24746;BME280;12845;52.042;6.838;2023-02-28T14:05:18;-18252.19;;;8.32;87.64
24746;BME280;12845;52.042;6.838;2023-02-28T14:07:53;-18253.97;;;8.39;66.87
24746;BME280;12845;52.042;6.838;2023-02-28T14:10:34;-18257.97;;;8.54;87.04
24746;BME280;12845;52.042;6.838;2023-02-28T14:13:03;-18257.97;;;8.54;90.50
24746;BME280;12845;52.042;6.838;2023-02-28T14:15:55;-18257.41;;;8.52;75.67
24746;BME280;12845;52.042;6.838;2023-02-28T14:18:28;-18257.41;;;8.52;77.85
24746;BME280;12845;52.042;6.838;2023-02-28T14:21:43;-18254.66;;;8.42;57.19
24746;BME280;12845;52.042;6.838;2023-02-28T14:24:16;-18254.09;;;8.40;61.52
24746;BME280;12845;52.042;6.838;2023-02-28T14:29:17;-18258.25;;;8.55;69.74
24746;BME280;12845;52.042;6.838;2023-02-28T14:37:42;-18261.41;;;8.67;75.87
24746;BME280;12845;52.042;6.838;2023-02-28T14:40:21;-18261.81;;;8.68;70.26
24746;BME280;12845;52.042;6.838;2023-02-28T14:43:00;-18264.44;;;8.78;66.06
24746;BME280;12845;52.042;6.838;2023-02-28T14:45:29;-18263.75;;;8.75;61.31
24746;BME280;12845;52.042;6.838;2023-02-28T14:47:56;-18261.69;;;8.68;71.00
24746;BME280;12845;52.042;6.838;2023-02-28T14:50:35;-18267.59;;;8.90;66.88
24746;BME280;12845;52.042;6.838;2023-02-28T14:53:01;-18267.59;;;8.90;79.62
24746;BME280;12845;52.042;6.838;2023-02-28T14:55:34;-18265.25;;;8.81;73.09
24746;BME280;12845;52.042;6.838;2023-02-28T14:58:03;-18264.44;;;8.78;64.17
24746;BME280;12845;52.042;6.838;2023-02-28T15:00:33;-18266.63;;;8.86;71.09
24746;BME280;12845;52.042;6.838;2023-02-28T15:03:11;-18261.94;;;8.69;55.35
24746;BME280;12845;52.042;6.838;2023-02-28T15:05:42;-18263.06;;;8.73;57.47
24746;BME280;12845;52.042;6.838;2023-02-28T15:08:17;-18265.13;;;8.80;63.45
24746;BME280;12845;52.042;6.838;2023-02-28T15:11:21;-18260.72;;;8.64;62.17